Time;durP1;ratioP1;P1;durP2;ratioP2;P2;SDS_P1;SDS_P2;PMS_P1;PMS_P2;Temp;Humidity;BMP_temperature;BMP_pressure;BME280_temperature;BME280_humidity;BME280_pressure;Samples;Min_cycle;Max_cycle;Signal;HPM_P1;HPM_P2
2023/10/14 00:01:26;;;;;;;10.15;4.65;;;21.90;99.90;;;;;;5036853;28;20228;-71
2023/10/14 00:03:54;;;;;;;8.77;4.05;;;21.90;99.90;;;;;;5036153;28;20201;-72
2023/10/14 00:06:20;;;;;;;9.57;4.47;;;21.90;99.90;;;;;;5019060;28;20175;-71
2023/10/14 00:08:57;;;;;;;12.07;5.32;;;21.90;99.90;;;;;;5029199;28;20203;-73
2023/10/14 00:11:35;;;;;;;7.70;4.63;;;21.90;99.90;;;;;;5017134;28;20289;-72
2023/10/14 00:14:16;;;;;;;10.45;4.70;;;21.90;99.90;;;;;;5049648;28;20173;-72
2023/10/14 00:16:42;;;;;;;10.30;4.93;;;21.90;99.90;;;;;;5036530;28;20425;-70
2023/10/14 00:19:11;;;;;;;8.27;4.45;;;21.90;99.90;;;;;;5036666;28;20206;-71
2023/10/14 00:21:42;;;;;;;12.00;4.30;;;21.90;99.90;;;;;;5017249;28;20175;-71
2023/10/14 00:24:08;;;;;;;8.88;4.53;;;21.90;99.90;;;;;;5044490;28;20202;-71
2023/10/14 00:26:34;;;;;;;11.52;4.13;;;21.90;99.90;;;;;;5035019;28;20197;-70
2023/10/14 00:31:47;;;;;;;6.25;3.83;;;22.00;99.90;;;;;;5032797;28;20205;-72
2023/10/14 00:34:15;;;;;;;9.15;4.15;;;22.10;99.90;;;;;;5036036;28;20170;-71
2023/10/14 00:36:42;;;;;;;7.18;3.65;;;22.10;99.90;;;;;;5032944;28;20422;-70
2023/10/14 00:39:12;;;;;;;8.18;4.10;;;22.10;99.90;;;;;;5033170;28;20218;-71
2023/10/14 00:41:50;;;;;;;7.78;4.20;;;22.10;99.90;;;;;;5038879;28;20173;-71
2023/10/14 00:44:17;;;;;;;7.30;3.85;;;22.10;99.90;;;;;;5042240;28;20177;-70
2023/10/14 00:46:50;;;;;;;10.80;4.22;;;22.20;99.90;;;;;;5033327;28;20209;-70
2023/10/14 00:49:28;;;;;;;6.68;3.50;;;22.20;99.90;;;;;;5036018;28;20170;-71
2023/10/14 00:52:01;;;;;;;6.20;3.55;;;22.20;99.90;;;;;;5035504;28;20361;-71
2023/10/14 00:57:09;;;;;;;7.28;3.70;;;22.20;99.90;;;;;;5036778;28;20186;-71
2023/10/14 00:59:35;;;;;;;6.75;3.00;;;22.20;99.90;;;;;;5035734;28;20255;-69
2023/10/14 01:02:05;;;;;;;6.97;3.33;;;22.20;99.90;;;;;;5034606;28;20182;-71
2023/10/14 01:04:34;;;;;;;7.20;3.28;;;22.20;99.90;;;;;;5035484;28;20265;-70
2023/10/14 01:07:12;;;;;;;6.57;3.30;;;22.20;99.90;;;;;;5035184;28;20223;-71
2023/10/14 01:14:59;;;;;;;6.32;3.33;;;22.10;99.90;;;;;;5037574;28;20208;-72
2023/10/14 01:17:29;;;;;;;6.50;2.85;;;22.10;99.90;;;;;;5036953;28;20387;-70
2023/10/14 01:20:00;;;;;;;6.15;3.00;;;22.10;99.90;;;;;;5032924;28;20197;-72
2023/10/14 01:22:27;;;;;;;6.72;3.08;;;22.10;99.90;;;;;;5051655;28;20177;-71
2023/10/14 01:24:55;;;;;;;5.93;3.40;;;22.10;99.90;;;;;;5052077;28;20185;-72
2023/10/14 01:27:21;;;;;;;5.38;2.50;;;22.10;99.90;;;;;;5041857;28;20208;-69
2023/10/14 01:29:52;;;;;;;7.60;2.80;;;22.10;99.90;;;;;;5051466;28;20169;-71
2023/10/14 01:35:12;;;;;;;4.22;2.75;;;22.00;99.90;;;;;;5035495;28;20224;-74
2023/10/14 01:37:45;;;;;;;6.13;2.53;;;21.70;99.90;;;;;;5035329;28;20201;-72
2023/10/14 01:42:48;;;;;;;5.35;2.38;;;21.20;99.90;;;;;;5035417;28;20251;-74
2023/10/14 01:45:20;;;;;;;4.93;2.20;;;20.90;99.90;;;;;;5033208;28;20178;-73
2023/10/14 01:50:54;;;;;;;5.13;2.22;;;20.60;99.90;;;;;;5035105;28;20249;-75
2023/10/14 01:53:27;;;;;;;5.13;2.15;;;20.40;99.90;;;;;;5034360;28;20198;-73
2023/10/14 01:56:00;;;;;;;3.53;2.22;;;20.30;99.90;;;;;;5031629;28;20174;-74
2023/10/14 01:58:32;;;;;;;4.22;1.70;;;20.40;99.90;;;;;;5018945;28;20239;-74
2023/10/14 02:03:46;;;;;;;4.22;1.77;;;20.30;99.90;;;;;;5035129;28;20206;-75
2023/10/14 02:06:25;;;;;;;4.47;1.85;;;20.30;99.90;;;;;;5024325;28;20157;-73
2023/10/14 02:08:52;;;;;;;3.00;1.52;;;20.20;99.90;;;;;;5033768;28;20252;-73
2023/10/14 02:11:21;;;;;;;6.55;1.60;;;20.20;99.90;;;;;;5034168;28;20173;-72
2023/10/14 02:13:55;;;;;;;6.97;1.55;;;20.10;99.90;;;;;;5051222;28;20197;-73
2023/10/14 02:16:40;;;;;;;3.40;1.60;;;20.10;99.90;;;;;;5034641;28;20181;-74
2023/10/14 02:19:21;;;;;;;2.90;1.35;;;20.20;99.90;;;;;;5034640;28;20186;-72
2023/10/14 02:22:29;;;;;;;7.78;1.52;;;20.20;99.90;;;;;;5033702;28;20205;-73
2023/10/14 02:24:40;;;;;;;2.58;1.30;;;20.20;99.90;;;;;;5025314;28;20186;-75
2023/10/14 02:27:14;;;;;;;2.95;1.33;;;20.30;99.90;;;;;;5034421;28;20224;-76
2023/10/14 02:29:48;;;;;;;1.55;0.90;;;20.20;99.90;;;;;;5034513;28;20201;-75
2023/10/14 02:32:15;;;;;;;2.58;1.20;;;20.10;99.90;;;;;;5051077;28;20181;-75
2023/10/14 02:34:44;;;;;;;3.95;1.27;;;20.00;99.90;;;;;;5050978;28;20196;-74
2023/10/14 02:37:13;;;;;;;5.47;1.48;;;19.80;99.90;;;;;;5050731;28;20268;-74
2023/10/14 02:39:43;;;;;;;2.35;1.17;;;19.70;99.90;;;;;;5030511;28;20194;-73
2023/10/14 02:42:09;;;;;;;2.65;1.13;;;19.60;99.90;;;;;;5050896;28;20186;-73
2023/10/14 02:44:44;;;;;;;1.83;0.98;;;19.50;99.90;;;;;;5038340;28;20209;-71
2023/10/14 02:47:11;;;;;;;2.42;1.17;;;19.40;99.90;;;;;;5037885;28;20169;-72
2023/10/14 02:49:42;;;;;;;3.83;1.10;;;19.40;99.90;;;;;;5038829;28;20186;-72
2023/10/14 02:52:17;;;;;;;2.95;1.00;;;19.40;99.90;;;;;;5029426;28;20179;-73
2023/10/14 02:54:45;;;;;;;2.60;1.15;;;19.40;99.90;;;;;;5038460;28;20208;-73
2023/10/14 03:02:15;;;;;;;2.05;1.10;;;19.40;99.90;;;;;;5028663;28;20185;-73
2023/10/14 03:08:08;;;;;;;1.27;0.63;;;19.20;99.90;;;;;;5027646;28;20241;-72
2023/10/14 03:10:18;;;;;;;1.10;0.80;;;18.90;99.90;;;;;;5036339;28;20190;-74
2023/10/14 03:12:48;;;;;;;1.58;0.80;;;18.60;99.90;;;;;;5038389;28;20180;-74
2023/10/14 03:15:22;;;;;;;0.82;0.50;;;18.30;99.90;;;;;;5037739;28;20188;-72
2023/10/14 03:17:58;;;;;;;0.28;0.28;;;18.10;99.90;;;;;;5049624;28;20220;-72
2023/10/14 03:20:35;;;;;;;0.15;0.15;;;17.80;99.90;;;;;;5037098;28;20288;-72
2023/10/14 03:25:44;;;;;;;0.17;0.17;;;17.20;99.90;;;;;;5058857;28;20215;-75
2023/10/14 03:30:44;;;;;;;0.30;0.20;;;16.80;99.90;;;;;;5050636;28;20201;-73
2023/10/14 03:33:11;;;;;;;0.30;0.20;;;16.60;99.90;;;;;;5054513;28;20194;-74
2023/10/14 03:35:41;;;;;;;0.22;0.20;;;16.50;99.90;;;;;;5038059;28;20174;-74
2023/10/14 03:38:33;;;;;;;0.30;0.28;;;16.40;99.90;;;;;;5031589;28;20206;-75
2023/10/14 03:41:10;;;;;;;0.25;0.20;;;16.30;99.90;;;;;;5020306;28;20220;-75
2023/10/14 03:46:12;;;;;;;0.90;0.30;;;16.20;99.90;;;;;;5038387;28;20221;-74
2023/10/14 03:48:47;;;;;;;0.40;0.30;;;16.10;99.90;;;;;;5036798;28;20220;-73
2023/10/14 03:51:27;;;;;;;0.30;0.30;;;16.10;99.90;;;;;;5037523;28;20162;-72
2023/10/14 03:53:58;;;;;;;0.22;0.20;;;16.00;99.90;;;;;;5056203;28;20169;-73
2023/10/14 03:56:31;;;;;;;0.50;0.30;;;16.00;99.90;;;;;;5057464;28;20179;-73
2023/10/14 03:59:01;;;;;;;0.60;0.40;;;16.00;99.90;;;;;;5027502;28;20206;-74
2023/10/14 04:04:26;;;;;;;0.60;0.35;;;16.00;99.90;;;;;;5024164;28;20170;-74
2023/10/14 04:09:50;;;;;;;0.47;0.40;;;15.90;99.90;;;;;;5037939;28;20182;-74
2023/10/14 04:12:37;;;;;;;0.65;0.50;;;15.90;99.90;;;;;;5036717;28;20288;-76
2023/10/14 04:17:48;;;;;;;0.40;0.40;;;15.90;99.90;;;;;;5037907;28;20201;-76
2023/10/14 04:20:37;;;;;;;1.58;0.52;;;15.90;99.90;;;;;;5037103;28;20185;-74
2023/10/14 04:23:05;;;;;;;0.52;0.47;;;15.80;99.90;;;;;;5037053;28;20197;-75
2023/10/14 04:25:42;;;;;;;0.75;0.47;;;15.80;99.90;;;;;;5036938;28;20174;-72
2023/10/14 04:30:44;;;;;;;2.83;0.70;;;15.60;99.90;;;;;;5037511;28;20217;-74
2023/10/14 04:35:56;;;;;;;2.28;0.77;;;15.50;99.90;;;;;;5037776;28;20193;-75
2023/10/14 04:38:37;;;;;;;1.63;0.80;;;15.40;99.90;;;;;;5029161;28;20216;-73
2023/10/14 04:41:04;;;;;;;1.60;0.90;;;15.40;99.90;;;;;;5016799;28;20171;-74
2023/10/14 04:45:57;;;;;;;5.10;1.40;;;15.20;99.90;;;;;;5032870;28;20272;-73
2023/10/14 04:48:35;;;;;;;5.65;1.50;;;15.20;99.90;;;;;;5052663;28;20208;-73
2023/10/14 04:51:15;;;;;;;5.57;1.60;;;15.00;99.90;;;;;;5036391;28;20173;-72
2023/10/14 04:53:44;;;;;;;5.03;1.70;;;14.90;99.90;;;;;;5035953;28;20165;-73
2023/10/14 04:56:10;;;;;;;5.97;1.50;;;14.70;99.90;;;;;;5035697;28;20201;-73
2023/10/14 04:58:40;;;;;;;4.32;1.20;;;14.50;99.90;;;;;;5036396;28;20525;-73
2023/10/14 05:01:18;;;;;;;4.05;1.15;;;14.30;99.90;;;;;;5035774;28;20209;-73
2023/10/14 05:03:44;;;;;;;5.03;1.30;;;14.20;99.90;;;;;;5035627;28;20224;-75
2023/10/14 05:08:48;;;;;;;6.50;1.85;;;13.90;99.90;;;;;;5035669;28;20210;-75
2023/10/14 05:11:24;;;;;;;3.97;1.40;;;13.80;99.90;;;;;;5033571;28;20182;-75
2023/10/14 05:14:07;;;;;;;6.07;1.58;;;13.70;99.90;;;;;;5030897;28;20181;-75
2023/10/14 05:19:30;;;;;;;4.45;1.42;;;13.60;99.90;;;;;;5019498;28;20202;-75
2023/10/14 05:22:04;;;;;;;3.25;1.10;;;13.60;99.90;;;;;;5032857;28;20210;-76
2023/10/14 05:24:31;;;;;;;3.38;1.35;;;13.60;99.90;;;;;;5035408;28;20257;-76
2023/10/14 05:27:01;;;;;;;3.72;1.27;;;13.60;99.90;;;;;;5042667;28;20223;-75
2023/10/14 05:29:28;;;;;;;4.65;1.30;;;13.60;99.90;;;;;;5034673;28;20235;-76
2023/10/14 05:32:18;;;;;;;4.60;1.50;;;13.60;99.90;;;;;;5035178;28;20193;-75
2023/10/14 05:34:44;;;;;;;7.50;1.38;;;13.60;99.90;;;;;;5035452;28;20273;-76
2023/10/14 05:37:13;;;;;;;3.53;1.17;;;13.70;99.90;;;;;;5052023;28;20186;-75
2023/10/14 05:39:42;;;;;;;5.10;1.30;;;13.70;99.90;;;;;;5035468;28;20275;-75
2023/10/14 05:42:20;;;;;;;5.85;2.20;;;13.70;99.90;;;;;;5052039;28;20256;-76
2023/10/14 05:44:57;;;;;;;7.43;3.00;;;13.80;99.90;;;;;;5051963;28;20197;-75
2023/10/14 05:47:27;;;;;;;5.90;1.80;;;13.80;99.90;;;;;;5025726;28;20173;-75
2023/10/14 05:49:55;;;;;;;4.68;1.90;;;13.90;99.90;;;;;;5035415;28;20170;-75
2023/10/14 05:52:25;;;;;;;5.38;1.75;;;13.80;99.90;;;;;;5034894;28;20206;-75
2023/10/14 05:54:51;;;;;;;4.80;1.60;;;13.90;99.90;;;;;;5034882;28;20185;-75
2023/10/14 05:57:20;;;;;;;3.00;1.38;;;14.00;99.90;;;;;;5022461;28;20175;-76
2023/10/14 05:59:51;;;;;;;3.15;1.20;;;13.90;99.90;;;;;;5015959;28;20170;-75
2023/10/14 06:02:16;;;;;;;5.18;1.30;;;14.00;99.90;;;;;;5033191;28;20174;-76
2023/10/14 06:04:42;;;;;;;5.07;1.30;;;14.00;99.90;;;;;;5029954;28;20208;-76
2023/10/14 06:07:09;;;;;;;10.85;1.88;;;14.00;99.90;;;;;;5034939;28;20181;-76
2023/10/14 06:09:37;;;;;;;7.00;1.40;;;14.00;99.90;;;;;;5051845;28;20209;-74
2023/10/14 06:12:12;;;;;;;3.33;1.17;;;14.00;99.90;;;;;;5035041;28;20252;-75
2023/10/14 06:14:41;;;;;;;4.93;1.40;;;14.00;99.90;;;;;;5034829;28;20207;-74
2023/10/14 06:17:09;;;;;;;3.88;1.30;;;13.90;99.90;;;;;;5034669;28;20173;-75
2023/10/14 06:19:38;;;;;;;6.25;1.50;;;13.90;99.90;;;;;;5032311;28;20175;-76
2023/10/14 06:22:07;;;;;;;4.20;1.40;;;13.90;99.90;;;;;;5034860;28;20201;-76
2023/10/14 06:24:34;;;;;;;3.92;1.02;;;13.90;99.90;;;;;;5035086;28;20170;-75
2023/10/14 06:27:20;;;;;;;4.80;1.50;;;13.90;99.90;;;;;;5035049;28;20256;-76
2023/10/14 06:29:48;;;;;;;2.78;1.30;;;13.90;99.90;;;;;;5034794;28;20169;-75
2023/10/14 06:32:16;;;;;;;2.95;1.10;;;13.90;99.90;;;;;;5035095;28;20169;-76
2023/10/14 06:34:44;;;;;;;5.53;1.33;;;13.80;99.90;;;;;;5034905;28;20259;-75
2023/10/14 06:37:11;;;;;;;4.75;1.25;;;13.90;99.90;;;;;;5050267;28;20166;-75
2023/10/14 06:39:39;;;;;;;4.45;1.38;;;13.90;99.90;;;;;;5034987;28;20185;-75
2023/10/14 06:42:07;;;;;;;2.92;1.42;;;13.90;99.90;;;;;;5034975;28;20343;-74
2023/10/14 06:44:33;;;;;;;7.13;1.60;;;13.80;99.90;;;;;;5034769;28;20178;-76
2023/10/14 06:47:02;;;;;;;6.40;1.58;;;13.80;99.90;;;;;;5034749;28;20206;-75
2023/10/14 06:49:32;;;;;;;5.25;1.42;;;13.80;99.90;;;;;;5035413;28;20177;-76
2023/10/14 06:51:59;;;;;;;5.30;1.45;;;13.80;99.90;;;;;;5051175;28;20205;-75
2023/10/14 06:54:30;;;;;;;5.15;1.48;;;13.80;99.90;;;;;;5050448;28;20177;-76
2023/10/14 06:56:56;;;;;;;7.10;1.50;;;13.80;99.90;;;;;;5022609;28;20192;-75
2023/10/14 06:59:21;;;;;;;5.28;1.63;;;13.80;99.90;;;;;;5034422;28;20194;-76
2023/10/14 07:01:47;;;;;;;7.68;1.60;;;13.80;99.90;;;;;;5034482;28;20260;-75
2023/10/14 07:04:13;;;;;;;5.00;1.15;;;13.80;99.90;;;;;;5034454;28;20194;-76
2023/10/14 07:06:47;;;;;;;4.45;1.40;;;13.80;99.90;;;;;;5034761;28;20170;-75
2023/10/14 07:09:18;;;;;;;14.65;1.88;;;13.80;99.90;;;;;;5034793;28;20166;-76
2023/10/14 07:11:49;;;;;;;6.57;1.77;;;13.80;99.90;;;;;;5034011;28;20263;-75
2023/10/14 07:14:18;;;;;;;6.00;1.67;;;13.80;99.90;;;;;;5034668;28;20174;-77
2023/10/14 07:16:45;;;;;;;4.13;1.60;;;13.90;99.90;;;;;;5034278;28;20229;-75
2023/10/14 07:19:11;;;;;;;5.82;1.80;;;13.90;99.90;;;;;;5034427;28;20209;-77
2023/10/14 07:21:39;;;;;;;3.97;1.40;;;13.90;99.90;;;;;;5034700;28;20181;-75
2023/10/14 07:24:08;;;;;;;4.85;1.63;;;13.90;99.90;;;;;;5034665;28;20289;-77
2023/10/14 07:26:36;;;;;;;7.30;2.00;;;14.00;99.90;;;;;;5030714;28;20202;-74
2023/10/14 07:29:08;;;;;;;7.45;1.98;;;14.00;99.90;;;;;;5036570;28;20263;-74
2023/10/14 07:31:36;;;;;;;2.80;1.45;;;14.00;99.90;;;;;;5037935;28;20192;-73
2023/10/14 07:34:02;;;;;;;4.43;1.48;;;14.00;99.90;;;;;;5038195;28;20170;-68
2023/10/14 07:36:29;;;;;;;6.90;1.90;;;14.00;99.90;;;;;;5034544;28;20238;-71
2023/10/14 07:39:02;;;;;;;6.18;2.00;;;14.00;99.90;;;;;;5027704;28;20226;-69
2023/10/14 07:41:29;;;;;;;3.83;1.95;;;14.00;99.90;;;;;;5037136;28;20197;-70
2023/10/14 07:43:57;;;;;;;4.05;1.90;;;14.10;99.90;;;;;;5036775;28;20254;-69
2023/10/14 07:46:23;;;;;;;6.05;1.58;;;14.10;99.90;;;;;;5022621;28;20183;-70
2023/10/14 07:48:53;;;;;;;5.15;1.50;;;14.10;99.90;;;;;;5037081;28;20243;-70
2023/10/14 07:51:18;;;;;;;5.40;1.75;;;14.10;99.90;;;;;;5037670;28;20205;-73
2023/10/14 07:53:44;;;;;;;6.45;2.00;;;14.20;99.90;;;;;;5037441;28;20452;-73
2023/10/14 07:56:12;;;;;;;4.30;1.40;;;14.10;99.90;;;;;;5034133;28;20249;-69
2023/10/14 07:58:38;;;;;;;6.95;1.67;;;14.20;99.90;;;;;;5037310;28;20205;-73
2023/10/14 08:01:06;;;;;;;6.85;2.00;;;14.20;99.90;;;;;;5033394;28;20225;-71
2023/10/14 08:03:36;;;;;;;10.02;1.80;;;14.20;99.90;;;;;;5047667;28;20174;-73
2023/10/14 08:06:05;;;;;;;6.32;1.70;;;14.20;99.90;;;;;;5033687;28;20258;-71
2023/10/14 08:08:31;;;;;;;7.50;1.80;;;14.20;99.90;;;;;;5030900;28;20201;-71
2023/10/14 08:10:58;;;;;;;7.07;1.92;;;14.30;99.90;;;;;;5036934;28;20216;-71
2023/10/14 08:13:30;;;;;;;8.35;1.80;;;14.20;99.90;;;;;;5053509;28;20188;-70
2023/10/14 08:16:02;;;;;;;7.95;2.10;;;14.30;99.90;;;;;;5034918;28;20178;-71
2023/10/14 08:18:27;;;;;;;8.18;2.00;;;14.30;99.90;;;;;;5053390;28;20190;-70
2023/10/14 08:20:54;;;;;;;6.70;1.70;;;14.30;99.90;;;;;;5052212;28;20512;-71
2023/10/14 08:23:26;;;;;;;5.13;1.48;;;14.30;99.90;;;;;;5048449;28;20207;-71
2023/10/14 08:25:59;;;;;;;3.30;1.55;;;14.40;99.90;;;;;;5057239;28;20165;-70
2023/10/14 08:28:27;;;;;;;6.00;1.70;;;14.50;99.90;;;;;;5042845;28;20232;-71
2023/10/14 08:30:55;;;;;;;5.10;1.70;;;14.50;99.90;;;;;;5036500;28;20178;-70
2023/10/14 08:33:23;;;;;;;7.10;1.83;;;14.50;99.90;;;;;;5036063;28;20178;-71
2023/10/14 08:35:55;;;;;;;7.68;1.88;;;14.60;99.90;;;;;;5035774;28;20194;-71
2023/10/14 08:38:27;;;;;;;6.72;1.98;;;14.70;99.90;;;;;;5035903;28;20210;-71
2023/10/14 08:40:59;;;;;;;5.95;1.85;;;14.70;99.90;;;;;;5036401;28;20174;-71
2023/10/14 08:43:26;;;;;;;5.07;1.95;;;14.80;99.90;;;;;;5035785;28;20178;-71
2023/10/14 08:45:54;;;;;;;8.30;1.90;;;14.80;99.90;;;;;;5036267;28;20174;-71
2023/10/14 08:48:24;;;;;;;3.90;1.67;;;14.80;99.90;;;;;;5036241;28;20301;-70
2023/10/14 08:50:57;;;;;;;8.82;2.38;;;14.90;99.90;;;;;;5035598;28;20261;-71
2023/10/14 08:53:30;;;;;;;9.93;2.42;;;14.90;99.90;;;;;;5036459;28;20223;-70
2023/10/14 08:55:59;;;;;;;7.20;2.40;;;15.00;99.90;;;;;;5035714;28;20206;-71
2023/10/14 08:58:25;;;;;;;6.32;1.80;;;14.90;99.90;;;;;;5035843;28;20197;-71
2023/10/14 09:00:52;;;;;;;4.57;2.15;;;15.10;99.90;;;;;;5035785;28;20178;-71
2023/10/14 09:03:17;;;;;;;5.80;1.95;;;15.10;99.90;;;;;;5034709;28;20281;-71
2023/10/14 09:05:46;;;;;;;7.57;2.55;;;15.10;99.90;;;;;;5022982;28;20213;-72
2023/10/14 09:08:16;;;;;;;6.20;2.17;;;15.20;99.90;;;;;;5043665;28;20195;-72
2023/10/14 09:10:43;;;;;;;6.10;2.10;;;15.30;99.90;;;;;;5052163;28;20162;-71
2023/10/14 09:13:13;;;;;;;5.65;2.00;;;15.60;99.90;;;;;;5032003;28;20178;-71
2023/10/14 09:15:43;;;;;;;3.22;1.65;;;16.10;99.90;;;;;;5033284;28;20345;-71
2023/10/14 09:18:16;;;;;;;6.95;2.10;;;16.50;99.90;;;;;;5034566;28;20200;-70
2023/10/14 09:20:42;;;;;;;5.20;2.05;;;16.90;99.90;;;;;;5035307;28;20162;-71
2023/10/14 09:23:21;;;;;;;5.65;1.85;;;17.40;99.90;;;;;;5034890;28;20293;-71
2023/10/14 09:25:55;;;;;;;6.13;2.40;;;17.80;99.90;;;;;;5015841;28;20183;-71
2023/10/14 09:28:25;;;;;;;6.05;1.60;;;18.20;99.90;;;;;;5030789;28;20173;-71
2023/10/14 09:30:53;;;;;;;9.45;2.00;;;18.40;99.90;;;;;;5035125;28;20201;-71
2023/10/14 09:33:28;;;;;;;6.50;1.90;;;18.70;99.90;;;;;;5034915;28;20182;-71
2023/10/14 09:36:02;;;;;;;5.43;1.85;;;19.00;99.90;;;;;;5034899;28;20173;-72
2023/10/14 09:38:28;;;;;;;6.28;2.05;;;19.30;99.90;;;;;;5054007;28;20242;-70
2023/10/14 09:40:59;;;;;;;5.05;1.70;;;19.40;99.90;;;;;;5029378;28;20209;-71
2023/10/14 09:43:25;;;;;;;6.70;1.58;;;19.40;99.90;;;;;;5015028;28;20282;-71
2023/10/14 09:45:56;;;;;;;4.68;1.92;;;19.40;99.90;;;;;;5026201;28;20230;-66
2023/10/14 09:48:29;;;;;;;6.90;2.03;;;19.60;99.90;;;;;;5034776;28;20205;-66
2023/10/14 09:51:02;;;;;;;5.55;1.80;;;19.70;99.90;;;;;;5033968;28;20403;-66
2023/10/14 09:53:34;;;;;;;5.85;1.63;;;19.80;99.90;;;;;;5033627;28;20174;-65
2023/10/14 09:56:06;;;;;;;4.75;1.95;;;19.80;99.90;;;;;;5033190;28;20178;-66
2023/10/14 09:58:36;;;;;;;6.65;2.03;;;20.00;99.90;;;;;;5036927;28;20198;-66
2023/10/14 10:01:04;;;;;;;4.75;1.90;;;20.10;99.90;;;;;;5034380;28;20170;-66
2023/10/14 10:04:21;;;;;;;5.63;1.95;;;20.20;99.90;;;;;;5034162;28;20202;-66
2023/10/14 10:07:15;;;;;;;5.05;1.85;;;20.20;99.90;;;;;;5014626;28;20269;-66
2023/10/14 10:10:10;;;;;;;5.25;1.85;;;20.30;99.90;;;;;;5021899;28;20223;-66
2023/10/14 10:12:37;;;;;;;4.85;1.75;;;20.30;99.90;;;;;;5034564;28;20196;-66
2023/10/14 10:15:06;;;;;;;6.40;2.08;;;20.30;99.90;;;;;;5044923;28;20261;-66
2023/10/14 10:17:39;;;;;;;4.28;1.63;;;20.30;99.90;;;;;;5033821;28;20184;-66
2023/10/14 10:20:10;;;;;;;6.32;1.80;;;20.30;99.90;;;;;;5034247;28;20166;-66
2023/10/14 10:22:41;;;;;;;5.90;2.15;;;20.20;99.90;;;;;;5033933;28;20267;-66
2023/10/14 10:25:14;;;;;;;5.35;1.90;;;20.10;99.90;;;;;;5050821;28;20198;-66
2023/10/14 10:27:44;;;;;;;5.65;1.45;;;20.00;99.90;;;;;;5014915;28;20176;-66
2023/10/14 10:30:15;;;;;;;4.90;1.60;;;20.00;99.90;;;;;;5026085;28;20171;-66
2023/10/14 10:32:48;;;;;;;6.38;1.95;;;19.90;99.90;;;;;;5034405;28;20289;-66
2023/10/14 10:35:16;;;;;;;4.43;1.50;;;19.70;99.90;;;;;;5034361;28;20192;-66
2023/10/14 10:37:46;;;;;;;3.50;1.50;;;19.50;99.90;;;;;;5033815;28;20201;-66
2023/10/14 10:40:12;;;;;;;6.80;1.70;;;19.40;99.90;;;;;;5034003;28;20232;-66
2023/10/14 10:42:46;;;;;;;4.55;1.50;;;19.40;99.90;;;;;;5034365;28;20174;-66
2023/10/14 10:45:20;;;;;;;5.25;1.40;;;19.40;99.90;;;;;;5018241;28;20212;-66
2023/10/14 10:47:57;;;;;;;4.55;1.60;;;19.40;99.90;;;;;;5050402;28;20206;-66
2023/10/14 10:50:26;;;;;;;5.10;2.00;;;19.30;99.90;;;;;;5024691;28;20171;-66
2023/10/14 10:53:12;;;;;;;5.72;1.80;;;19.30;99.90;;;;;;5032187;28;20280;-66
2023/10/14 10:55:46;;;;;;;4.63;1.73;;;19.20;99.90;;;;;;5034007;28;20205;-66
2023/10/14 10:58:12;;;;;;;5.35;1.95;;;19.10;99.90;;;;;;5032952;28;20198;-66
2023/10/14 11:00:40;;;;;;;4.18;1.75;;;19.10;99.90;;;;;;5034088;28;20170;-66
2023/10/14 11:03:14;;;;;;;2.83;1.40;;;19.20;99.90;;;;;;5034366;28;20189;-66
2023/10/14 11:05:43;;;;;;;6.35;1.58;;;19.20;99.90;;;;;;5040483;28;20205;-66
2023/10/14 11:08:10;;;;;;;5.25;1.80;;;19.30;99.90;;;;;;5044397;28;20178;-66
2023/10/14 11:10:38;;;;;;;4.25;1.52;;;19.30;99.90;;;;;;5037358;28;20182;-66
2023/10/14 11:13:05;;;;;;;4.65;1.55;;;19.20;99.90;;;;;;5034811;28;20190;-66
2023/10/14 11:15:34;;;;;;;4.78;1.70;;;19.10;99.90;;;;;;5053260;28;20177;-67
2023/10/14 11:18:03;;;;;;;5.05;1.70;;;19.00;99.90;;;;;;5034566;28;20195;-66
2023/10/14 11:20:33;;;;;;;7.10;1.88;;;18.80;99.90;;;;;;5053265;28;20178;-67
2023/10/14 11:23:00;;;;;;;7.40;1.90;;;18.60;99.90;;;;;;5038039;28;20177;-66
2023/10/14 11:25:30;;;;;;;4.95;1.60;;;18.40;99.90;;;;;;5044757;28;20208;-65
2023/10/14 11:27:57;;;;;;;5.13;1.60;;;18.30;99.90;;;;;;5029648;28;20173;-66
2023/10/14 11:30:31;;;;;;;5.43;1.70;;;18.20;99.90;;;;;;5037594;28;20259;-66
2023/10/14 11:32:59;;;;;;;5.10;1.48;;;18.20;99.90;;;;;;5037107;28;20182;-66
2023/10/14 11:35:29;;;;;;;6.47;1.77;;;18.20;99.90;;;;;;5036608;28;20257;-66
2023/10/14 11:38:02;;;;;;;6.15;1.88;;;18.10;99.90;;;;;;5037012;28;20232;-67
2023/10/14 11:40:35;;;;;;;5.68;1.40;;;18.00;99.90;;;;;;5036075;28;20181;-67
2023/10/14 11:43:01;;;;;;;7.60;1.83;;;17.90;99.90;;;;;;5037096;28;20194;-66
2023/10/14 11:45:27;;;;;;;5.82;1.77;;;17.90;99.90;;;;;;5037152;28;20210;-65
2023/10/14 11:47:53;;;;;;;4.00;1.45;;;18.00;99.90;;;;;;5032020;28;20174;-67
2023/10/14 11:50:22;;;;;;;4.18;1.50;;;18.10;99.90;;;;;;5033575;28;20208;-66
2023/10/14 11:52:56;;;;;;;4.20;1.30;;;18.40;99.90;;;;;;5031099;28;20186;-66
2023/10/14 11:55:25;;;;;;;3.97;1.50;;;18.50;99.90;;;;;;5033514;28;20197;-66
2023/10/14 11:57:53;;;;;;;5.22;1.90;;;18.60;99.90;;;;;;5036048;28;20221;-67
2023/10/14 12:00:20;;;;;;;5.88;1.88;;;18.70;99.90;;;;;;5036560;28;20183;-65
2023/10/14 12:02:47;;;;;;;4.75;1.73;;;18.70;99.90;;;;;;5036879;28;20178;-67
2023/10/14 12:05:16;;;;;;;6.15;1.58;;;18.70;99.90;;;;;;5051133;28;20253;-66
2023/10/14 12:07:51;;;;;;;3.83;1.50;;;18.60;99.90;;;;;;5039125;28;20201;-66
2023/10/14 12:10:17;;;;;;;6.72;1.55;;;18.50;99.90;;;;;;5037139;28;20265;-67
2023/10/14 12:12:52;;;;;;;5.75;1.40;;;18.40;99.90;;;;;;5036862;28;20225;-66
2023/10/14 12:15:20;;;;;;;4.38;1.50;;;18.30;99.90;;;;;;5036567;28;20224;-67
2023/10/14 12:17:46;;;;;;;4.95;1.27;;;18.20;99.90;;;;;;5036997;28;20189;-67
2023/10/14 12:20:11;;;;;;;3.40;1.38;;;18.20;99.90;;;;;;5037337;28;20220;-67
2023/10/14 12:22:39;;;;;;;6.00;1.50;;;18.30;99.90;;;;;;5037025;28;20261;-66
2023/10/14 12:25:10;;;;;;;4.82;1.30;;;18.40;99.90;;;;;;5032576;28;20202;-66
2023/10/14 12:27:36;;;;;;;3.78;1.25;;;18.40;99.90;;;;;;5031386;28;20174;-66
2023/10/14 12:30:01;;;;;;;6.55;1.38;;;18.50;99.90;;;;;;5016366;28;20198;-65
2023/10/14 12:32:30;;;;;;;3.20;1.02;;;18.60;99.90;;;;;;5016564;28;20198;-66
2023/10/14 12:35:04;;;;;;;5.15;1.70;;;18.70;99.90;;;;;;5024448;28;20173;-66
2023/10/14 12:37:33;;;;;;;4.50;1.40;;;18.60;99.90;;;;;;5036209;28;20181;-66
2023/10/14 12:40:11;;;;;;;6.32;1.65;;;18.60;99.90;;;;;;5035066;28;20182;-66
2023/10/14 12:42:49;;;;;;;4.30;1.33;;;18.60;99.90;;;;;;5031331;28;20189;-66
2023/10/14 12:45:23;;;;;;;4.45;1.35;;;18.50;99.90;;;;;;5036894;28;20257;-66
2023/10/14 12:47:56;;;;;;;5.43;1.60;;;18.40;99.90;;;;;;5036114;28;20181;-66
2023/10/14 12:50:22;;;;;;;4.63;1.30;;;18.40;99.90;;;;;;5036107;28;20181;-66
2023/10/14 12:52:59;;;;;;;4.43;1.27;;;18.40;99.90;;;;;;5035421;28;20186;-66
2023/10/14 12:55:30;;;;;;;5.60;1.30;;;18.50;99.90;;;;;;5036344;28;20224;-66
2023/10/14 12:57:57;;;;;;;6.13;1.38;;;18.60;99.90;;;;;;5035709;28;20217;-66
2023/10/14 13:00:29;;;;;;;5.18;1.48;;;18.70;99.90;;;;;;5036300;28;20174;-66
2023/10/14 13:02:58;;;;;;;5.03;1.30;;;18.90;99.90;;;;;;5032991;28;20178;-66
2023/10/14 13:05:27;;;;;;;4.03;1.42;;;19.00;99.90;;;;;;5033059;28;20185;-66
2023/10/14 13:07:54;;;;;;;4.30;1.35;;;19.10;99.90;;;;;;5032593;28;20183;-66
2023/10/14 13:10:23;;;;;;;6.07;1.60;;;19.10;99.90;;;;;;5030829;28;20207;-66
2023/10/14 13:12:51;;;;;;;4.60;1.23;;;18.90;99.90;;;;;;5035831;28;20174;-67
2023/10/14 13:15:25;;;;;;;3.75;1.40;;;18.80;99.90;;;;;;5028527;28;20197;-68
2023/10/14 13:17:56;;;;;;;2.88;1.10;;;18.70;99.90;;;;;;5033791;28;20224;-66
2023/10/14 13:20:26;;;;;;;3.17;1.30;;;18.60;99.90;;;;;;5035721;28;20205;-67
2023/10/14 13:22:59;;;;;;;3.72;1.30;;;18.50;99.90;;;;;;5035936;28;20173;-67
2023/10/14 13:25:25;;;;;;;4.25;1.25;;;18.50;99.90;;;;;;5051478;28;20240;-67
2023/10/14 13:27:52;;;;;;;3.08;1.10;;;18.50;99.90;;;;;;5035319;28;20170;-67
2023/10/14 13:30:22;;;;;;;4.50;1.40;;;18.50;99.90;;;;;;5032390;28;20260;-66
2023/10/14 13:32:56;;;;;;;3.47;1.33;;;18.50;99.90;;;;;;5039593;28;20181;-66
2023/10/14 13:35:25;;;;;;;3.47;1.08;;;18.40;99.90;;;;;;5027999;28;20219;-67
2023/10/14 13:37:54;;;;;;;2.75;1.10;;;18.40;99.90;;;;;;5033410;28;20221;-67
2023/10/14 13:40:21;;;;;;;4.35;1.42;;;18.30;99.90;;;;;;5031407;28;20175;-66
2023/10/14 13:42:48;;;;;;;5.70;1.20;;;18.20;99.90;;;;;;5025939;28;20182;-66
2023/10/14 13:45:15;;;;;;;3.08;1.20;;;18.10;99.90;;;;;;5033535;28;20186;-66
2023/10/14 13:47:41;;;;;;;5.78;1.30;;;18.10;99.90;;;;;;5015781;28;20178;-67
2023/10/14 13:50:11;;;;;;;2.95;1.30;;;18.20;99.90;;;;;;5015578;28;20194;-66
2023/10/14 13:52:39;;;;;;;7.70;1.65;;;18.30;99.90;;;;;;5029888;28;20174;-67
2023/10/14 13:55:11;;;;;;;3.80;1.25;;;18.50;99.90;;;;;;5035027;28;20178;-66
2023/10/14 13:57:38;;;;;;;4.97;1.35;;;18.60;99.90;;;;;;5031369;28;20244;-67
2023/10/14 14:00:07;;;;;;;4.22;1.33;;;18.70;99.90;;;;;;5030664;28;20182;-66
2023/10/14 14:02:35;;;;;;;5.97;2.45;;;18.90;99.90;;;;;;5034344;28;20209;-66